Time;durP1;ratioP1;P1;durP2;ratioP2;P2;SDS_P1;SDS_P2;PMS_P1;PMS_P2;Temp;Humidity;BMP_temperature;BMP_pressure;BME280_temperature;BME280_humidity;BME280_pressure;Samples;Min_cycle;Max_cycle;Signal;HPM_P1;HPM_P2
2022/05/21 00:01:55;;;;;;;0.40;0.40;;;12.70;99.90;12.00;101874.00;;;;5071009;28;20272;-66
2022/05/21 00:04:21;;;;;;;0.40;0.40;;;12.60;99.90;12.00;101862.00;;;;5071428;28;20187;-65
2022/05/21 00:06:47;;;;;;;0.40;0.40;;;12.60;99.90;12.60;101858.00;;;;5055562;28;20167;-66
2022/05/21 00:09:13;;;;;;;0.30;0.30;;;12.70;99.90;12.30;101859.00;;;;5055670;28;20184;-65
2022/05/21 00:11:40;;;;;;;0.40;0.40;;;12.70;99.90;11.80;101865.00;;;;5070927;28;20213;-65
2022/05/21 00:14:07;;;;;;;0.40;0.40;;;12.50;99.90;11.90;101856.00;;;;5055463;28;20549;-65
2022/05/21 00:16:33;;;;;;;1.17;1.07;;;12.50;99.90;11.80;101861.00;;;;5053966;28;20185;-65
2022/05/21 00:18:59;;;;;;;0.50;0.50;;;12.40;99.90;12.30;101865.00;;;;5055247;28;20182;-65
2022/05/21 00:21:25;;;;;;;1.03;0.87;;;12.60;99.90;12.00;101865.00;;;;5055331;28;20189;-65
2022/05/21 00:23:51;;;;;;;3.80;1.10;;;12.50;99.90;12.00;101865.00;;;;5055448;28;20174;-65
2022/05/21 00:26:18;;;;;;;0.67;0.67;;;12.50;99.90;12.10;101864.00;;;;5070826;28;20216;-65
2022/05/21 00:28:46;;;;;;;3.80;1.60;;;12.60;99.90;11.90;101865.00;;;;5070680;28;20171;-65
2022/05/21 00:31:15;;;;;;;0.30;0.30;;;12.40;99.90;11.80;101855.00;;;;5070654;28;20359;-65
2022/05/21 00:33:43;;;;;;;0.70;0.70;;;12.40;99.90;11.90;101824.00;;;;5070310;28;20710;-65
2022/05/21 00:36:10;;;;;;;0.40;0.40;;;12.40;99.90;12.00;101818.00;;;;5070761;28;20185;-65
2022/05/21 00:38:37;;;;;;;0.47;0.47;;;12.50;99.90;11.70;101857.00;;;;5053709;28;20189;-65
2022/05/21 00:41:05;;;;;;;0.70;0.70;;;12.40;99.90;12.00;101861.00;;;;5070464;28;20182;-65
2022/05/21 00:43:48;;;;;;;6.40;1.70;;;12.50;99.90;12.10;101829.00;;;;5070683;28;20228;-65
2022/05/21 00:46:32;;;;;;;1.07;1.03;;;12.50;99.90;12.40;101864.00;;;;5055002;28;20290;-65
2022/05/21 00:49:26;;;;;;;0.70;0.70;;;12.70;99.90;11.90;101857.00;;;;5070367;28;20180;-65
2022/05/21 00:52:03;;;;;;;0.47;0.47;;;12.50;99.90;12.00;101853.00;;;;5054818;28;20210;-65
2022/05/21 00:54:49;;;;;;;0.50;0.50;;;12.50;99.90;11.90;101856.00;;;;5054018;28;20204;-65
2022/05/21 00:57:24;;;;;;;0.43;0.43;;;12.50;99.90;11.70;101864.00;;;;5070164;28;20182;-65
2022/05/21 00:59:57;;;;;;;1.23;1.13;;;12.40;99.90;11.60;101864.00;;;;5070090;28;20177;-65
2022/05/21 01:02:44;;;;;;;0.53;0.53;;;12.30;99.90;11.60;101861.00;;;;5069660;28;20272;-65
2022/05/21 01:05:13;;;;;;;3.07;1.90;;;12.30;99.90;11.80;101849.00;;;;5070345;28;20173;-65
2022/05/21 01:07:42;;;;;;;0.93;0.50;;;12.30;99.90;11.80;101860.00;;;;5054518;28;20185;-65
2022/05/21 01:10:10;;;;;;;0.77;0.77;;;12.30;99.90;11.90;101870.00;;;;5054471;28;20316;-65
2022/05/21 01:12:42;;;;;;;0.53;0.53;;;12.40;99.90;11.90;101819.00;;;;5069630;28;20198;-65
2022/05/21 01:15:14;;;;;;;0.30;0.30;;;12.40;99.90;11.80;101864.00;;;;5054641;28;20222;-65
2022/05/21 01:17:41;;;;;;;4.53;1.63;;;12.40;99.90;12.20;101860.00;;;;5069852;28;20216;-65
2022/05/21 01:20:19;;;;;;;0.40;0.40;;;12.60;99.90;11.70;101861.00;;;;5069848;28;20178;-65
2022/05/21 01:22:52;;;;;;;0.40;0.40;;;12.40;99.90;11.80;101862.00;;;;5069443;28;20601;-65
2022/05/21 01:25:23;;;;;;;1.90;1.17;;;12.40;99.90;11.80;101864.00;;;;5069909;28;20191;-65
2022/05/21 01:27:53;;;;;;;0.47;0.47;;;12.30;99.90;11.60;101860.00;;;;5086416;28;20553;-65
2022/05/21 01:30:32;;;;;;;6.37;1.13;;;12.30;99.90;11.80;101874.00;;;;5069371;28;20164;-66
2022/05/21 01:33:02;;;;;;;0.90;0.90;;;12.30;99.90;12.10;101876.00;;;;5053688;28;20213;-65
2022/05/21 01:35:28;;;;;;;0.33;0.33;;;12.50;99.90;11.80;101876.00;;;;5054255;28;20186;-65
2022/05/21 01:37:54;;;;;;;2.63;1.40;;;12.40;99.90;11.70;101878.00;;;;5053923;28;20260;-65
2022/05/21 01:40:20;;;;;;;2.60;1.80;;;12.30;99.90;11.70;101820.00;;;;5053930;28;20206;-65
2022/05/21 01:44:37;;;;;;;0.40;0.40;;;12.30;99.90;11.70;101874.00;;;;5054002;28;20269;-65
2022/05/21 01:45:36;;;;;;;6.93;1.10;;;12.30;99.90;11.90;101874.00;;;;5066208;28;20191;-65
2022/05/21 01:48:03;;;;;;;1.33;1.23;;;12.40;99.90;11.70;101871.00;;;;5053356;28;20189;-66
2022/05/21 01:50:30;;;;;;;5.63;1.47;;;12.30;99.90;11.80;101881.00;;;;5069620;28;20565;-66
2022/05/21 01:52:57;;;;;;;0.50;0.50;;;12.40;99.90;11.70;101885.00;;;;5053606;28;20209;-66
2022/05/21 01:55:23;;;;;;;0.83;0.83;;;12.30;99.90;11.70;101873.00;;;;5069337;28;20201;-65
2022/05/21 01:57:50;;;;;;;1.57;1.47;;;12.30;99.90;11.90;101870.00;;;;5069107;28;20178;-66
2022/05/21 02:00:18;;;;;;;1.73;1.63;;;12.30;99.90;11.80;101878.00;;;;5068749;28;20180;-66
2022/05/21 02:02:44;;;;;;;3.27;1.20;;;12.30;99.90;11.60;101879.00;;;;5053363;28;20190;-65
2022/05/21 02:05:11;;;;;;;2.30;1.70;;;12.30;99.90;11.50;101879.00;;;;5053946;28;20162;-65
2022/05/21 02:07:37;;;;;;;1.33;1.07;;;12.30;99.90;11.70;101877.00;;;;5053462;28;20207;-65
2022/05/21 02:10:04;;;;;;;1.60;1.27;;;12.20;99.90;11.70;101877.00;;;;5085782;28;20206;-65
2022/05/21 02:12:31;;;;;;;0.60;0.60;;;12.20;99.90;11.60;101881.00;;;;5068866;28;20202;-65
2022/05/21 02:14:57;;;;;;;0.57;0.57;;;12.20;99.90;11.50;101869.00;;;;5068455;28;20185;-65
2022/05/21 02:17:23;;;;;;;1.37;1.27;;;12.20;99.90;11.90;101887.00;;;;5053575;28;20179;-65
2022/05/21 02:19:49;;;;;;;0.30;0.30;;;12.30;99.90;11.80;101888.00;;;;5053405;28;20265;-65
2022/05/21 02:22:16;;;;;;;0.30;0.30;;;12.30;99.90;11.40;101888.00;;;;5053767;28;20193;-65
2022/05/21 02:24:42;;;;;;;0.30;0.30;;;12.20;99.90;11.60;101886.00;;;;5068643;28;20179;-65
2022/05/21 02:27:11;;;;;;;0.40;0.40;;;12.20;99.90;11.50;101885.00;;;;5053249;28;20166;-65
2022/05/21 02:29:38;;;;;;;3.33;1.23;;;12.10;99.90;11.70;101898.00;;;;5052718;28;20617;-64
2022/05/21 02:32:08;;;;;;;0.50;0.50;;;12.20;99.90;11.50;101891.00;;;;5068581;28;20225;-65
2022/05/21 02:34:34;;;;;;;5.60;1.07;;;12.10;99.90;11.30;101891.00;;;;5068794;28;20272;-64
2022/05/21 02:39:45;;;;;;;1.03;0.70;;;12.10;99.90;11.40;101884.00;;;;5066148;28;20279;-65
2022/05/21 02:44:56;;;;;;;1.10;1.00;;;12.10;99.90;11.40;101872.00;;;;5052768;28;20193;-65
2022/05/21 02:47:24;;;;;;;0.30;0.30;;;12.10;99.90;11.50;101871.00;;;;5053389;28;20206;-65
2022/05/21 02:49:50;;;;;;;0.97;0.93;;;12.10;99.90;11.70;101839.00;;;;5068226;28;20257;-64
2022/05/21 02:52:16;;;;;;;1.33;1.20;;;12.10;99.90;11.60;101859.00;;;;5052871;28;20246;-65
2022/05/21 02:54:42;;;;;;;4.77;1.70;;;12.10;99.90;11.80;101891.00;;;;5068543;28;20190;-65
2022/05/21 02:57:11;;;;;;;0.67;0.67;;;12.20;99.90;11.90;101895.00;;;;5068395;28;20178;-65
2022/05/21 02:59:38;;;;;;;2.97;2.70;;;12.30;99.90;11.90;101880.00;;;;5052694;28;20175;-65
2022/05/21 03:02:04;;;;;;;8.87;3.10;;;12.40;99.90;11.70;101873.00;;;;5068303;28;20197;-65
2022/05/21 03:04:30;;;;;;;20.73;2.23;;;12.30;99.90;12.00;101885.00;;;;5068529;28;20681;-65
2022/05/21 03:06:57;;;;;;;3.40;1.90;;;12.40;99.90;11.80;101890.00;;;;5068367;28;20560;-65
2022/05/21 03:12:09;;;;;;;4.20;2.60;;;12.30;99.90;11.60;101884.00;;;;5065525;28;20295;-65
2022/05/21 03:14:36;;;;;;;2.10;1.87;;;12.20;99.90;11.60;101891.00;;;;5068375;28;20185;-65
2022/05/21 03:17:03;;;;;;;1.67;1.57;;;12.20;99.90;11.70;101884.00;;;;5068165;28;20274;-65
2022/05/21 03:19:32;;;;;;;3.60;2.63;;;12.20;99.90;11.60;101872.00;;;;5071240;28;20171;-65
2022/05/21 03:21:58;;;;;;;4.10;3.20;;;12.20;99.90;11.80;101883.00;;;;5072123;28;20180;-65
2022/05/21 03:24:25;;;;;;;0.30;0.30;;;12.20;99.90;11.50;101860.00;;;;5072217;28;20177;-65
2022/05/21 03:26:51;;;;;;;0.30;0.30;;;12.20;99.90;11.70;101888.00;;;;5071392;28;20621;-65
2022/05/21 03:29:17;;;;;;;0.40;0.40;;;12.10;99.90;11.90;101894.00;;;;5088905;28;20189;-65
2022/05/21 03:31:42;;;;;;;0.40;0.40;;;12.30;99.90;11.60;101880.00;;;;5055971;28;20217;-65
2022/05/21 03:34:08;;;;;;;0.83;0.83;;;12.20;99.90;11.80;101884.00;;;;5056113;28;20202;-66
2022/05/21 03:36:34;;;;;;;0.30;0.30;;;12.30;99.90;11.70;101843.00;;;;5056634;28;20178;-65
2022/05/21 03:39:00;;;;;;;0.40;0.40;;;12.20;99.90;11.70;101892.00;;;;5056363;28;20182;-65
2022/05/21 03:41:27;;;;;;;0.90;0.90;;;12.20;99.90;11.80;101900.00;;;;5055833;28;20179;-65
2022/05/21 03:43:55;;;;;;;0.43;0.43;;;12.20;99.90;11.60;101885.00;;;;5088582;28;20203;-65
2022/05/21 03:46:21;;;;;;;4.43;2.20;;;12.20;99.90;11.40;101887.00;;;;5055017;28;20174;-65
2022/05/21 03:48:48;;;;;;;2.83;1.90;;;12.10;99.90;11.50;101904.00;;;;5059128;28;20205;-65
2022/05/21 03:51:14;;;;;;;1.10;1.10;;;12.00;99.90;11.40;101894.00;;;;5036028;28;20202;-65
2022/05/21 03:53:40;;;;;;;0.63;0.63;;;12.00;99.90;11.30;101905.00;;;;5051868;28;20188;-65
2022/05/21 03:56:06;;;;;;;1.60;1.50;;;11.90;99.90;11.30;101909.00;;;;5035661;28;20547;-65
2022/05/21 03:58:33;;;;;;;0.90;0.73;;;11.90;99.90;11.40;101903.00;;;;5051334;28;20187;-65
2022/05/21 04:00:59;;;;;;;1.87;1.73;;;11.90;99.90;11.70;101902.00;;;;5050981;28;20620;-65
2022/05/21 04:03:25;;;;;;;1.80;1.50;;;12.00;99.90;11.40;101898.00;;;;5051478;28;20175;-65
2022/05/21 04:05:56;;;;;;;2.13;1.93;;;12.00;99.90;11.20;101902.00;;;;5051547;28;20181;-65
2022/05/21 04:08:25;;;;;;;0.60;0.60;;;11.90;99.90;11.30;101919.00;;;;5036120;28;20183;-65
2022/05/21 04:10:51;;;;;;;0.50;0.50;;;11.90;99.90;11.40;101912.00;;;;5035537;28;20179;-65
2022/05/21 04:13:17;;;;;;;0.67;0.67;;;12.00;99.90;11.80;101890.00;;;;5035553;28;20213;-65
2022/05/21 04:15:44;;;;;;;0.70;0.70;;;12.10;99.90;11.60;101922.00;;;;5035669;28;20543;-65
2022/05/21 04:18:11;;;;;;;1.60;1.47;;;12.10;99.90;11.40;101885.00;;;;5050734;28;20218;-65
2022/05/21 04:20:38;;;;;;;0.40;0.40;;;12.00;99.90;11.90;101921.00;;;;5067767;28;20190;-66
2022/05/21 04:23:04;;;;;;;2.73;0.90;;;12.20;99.90;12.40;101925.00;;;;5035364;28;20218;-66
2022/05/21 04:25:31;;;;;;;0.50;0.50;;;12.50;99.90;11.90;101924.00;;;;5050757;28;20184;-65
2022/05/21 04:27:58;;;;;;;0.90;0.90;;;12.40;99.90;12.10;101921.00;;;;5035351;28;20214;-65
2022/05/21 04:30:28;;;;;;;0.70;0.70;;;12.40;99.90;12.00;101916.00;;;;5050606;28;20175;-65
2022/05/21 04:32:58;;;;;;;1.17;1.13;;;12.40;99.90;12.00;101883.00;;;;5050486;28;20207;-65
2022/05/21 04:36:17;;;;;;;0.30;0.30;;;12.50;99.90;11.80;101933.00;;;;5035468;28;20179;-65
2022/05/21 04:38:13;;;;;;;7.60;1.43;;;12.40;99.90;11.80;101937.00;;;;5034848;28;20199;-65
2022/05/21 04:40:39;;;;;;;0.53;0.53;;;12.40;99.90;12.30;101913.00;;;;5066925;28;20183;-65
2022/05/21 04:43:05;;;;;;;2.30;1.37;;;12.50;99.90;12.20;101928.00;;;;5035218;28;20635;-66
2022/05/21 04:45:33;;;;;;;0.30;0.30;;;12.60;99.90;12.70;101928.00;;;;5035333;28;20189;-65
2022/05/21 04:48:07;;;;;;;0.80;0.80;;;12.70;99.90;13.30;101935.00;;;;5050255;28;20201;-66
2022/05/21 04:50:37;;;;;;;2.73;2.63;;;13.20;99.90;13.20;101937.00;;;;5050366;28;20188;-66
2022/05/21 04:53:03;;;;;;;3.13;2.23;;;13.40;99.90;12.80;101931.00;;;;5034760;28;20198;-65
2022/05/21 04:55:29;;;;;;;0.30;0.30;;;13.30;99.90;12.50;101933.00;;;;5049965;28;20524;-66
2022/05/21 04:57:55;;;;;;;0.40;0.40;;;13.00;99.90;12.50;101940.00;;;;5066784;28;20224;-65
2022/05/21 05:00:21;;;;;;;2.43;1.60;;;13.00;99.90;12.60;101939.00;;;;5034747;28;20645;-65
2022/05/21 05:02:46;;;;;;;0.80;0.80;;;13.00;99.90;13.00;101940.00;;;;5034518;28;20194;-65
2022/05/21 05:05:13;;;;;;;1.23;1.13;;;13.20;99.90;12.60;101947.00;;;;5066874;28;20540;-65
2022/05/21 05:07:40;;;;;;;4.30;1.00;;;13.30;99.90;12.70;101948.00;;;;5034668;28;20182;-65
2022/05/21 05:10:08;;;;;;;12.37;2.57;;;13.30;99.90;13.50;101949.00;;;;5034036;28;20201;-65
2022/05/21 05:12:35;;;;;;;0.20;0.20;;;13.60;99.90;14.40;101943.00;;;;5034320;28;20696;-65
2022/05/21 05:15:01;;;;;;;1.60;1.50;;;14.40;99.90;13.10;101904.00;;;;5034703;28;20184;-66
2022/05/21 05:17:28;;;;;;;2.23;2.13;;;13.90;99.90;12.80;101939.00;;;;5034405;28;20204;-65
2022/05/21 05:19:54;;;;;;;0.80;0.80;;;13.50;99.90;13.50;101943.00;;;;5034272;28;20266;-65
2022/05/21 05:22:22;;;;;;;1.63;1.53;;;13.80;99.90;13.50;101936.00;;;;5034288;28;20186;-66
2022/05/21 05:24:47;;;;;;;0.60;0.60;;;14.10;99.90;13.90;101941.00;;;;5034219;28;20258;-66
2022/05/21 05:27:16;;;;;;;0.30;0.30;;;14.20;99.90;14.30;101914.00;;;;5034526;28;20263;-66
2022/05/21 05:29:42;;;;;;;3.10;1.27;;;14.70;99.90;14.00;101939.00;;;;5034455;28;20185;-66
2022/05/21 05:32:09;;;;;;;2.03;1.83;;;14.50;99.90;15.00;101937.00;;;;5034110;28;20237;-66
2022/05/21 05:34:36;;;;;;;3.20;1.70;;;15.10;99.90;13.90;101934.00;;;;5034121;28;20182;-66
2022/05/21 05:37:03;;;;;;;1.77;1.67;;;14.70;99.90;13.40;101909.00;;;;5049228;28;20176;-66
2022/05/21 05:39:30;;;;;;;4.67;2.10;;;14.30;99.90;13.40;101941.00;;;;5049463;28;20185;-66
2022/05/21 05:41:57;;;;;;;4.70;2.87;;;14.20;99.90;13.20;101956.00;;;;5033691;28;20190;-65
2022/05/21 05:44:24;;;;;;;7.30;2.20;;;14.00;99.90;14.00;101962.00;;;;5049131;28;20186;-65
2022/05/21 05:46:49;;;;;;;5.87;3.57;;;14.20;99.90;13.60;101969.00;;;;5033956;28;20542;-65
2022/05/21 05:49:15;;;;;;;3.20;2.30;;;14.10;99.90;13.40;101969.00;;;;5033555;28;20176;-65
2022/05/21 05:51:44;;;;;;;0.40;0.40;;;13.90;99.90;13.50;101945.00;;;;5033501;28;20208;-65
2022/05/21 05:54:10;;;;;;;0.40;0.40;;;13.90;99.90;13.70;101963.00;;;;5049054;28;20182;-65
2022/05/21 05:56:36;;;;;;;4.17;1.40;;;14.10;99.90;13.70;101955.00;;;;5033994;28;20186;-65
2022/05/21 06:01:46;;;;;;;1.37;1.37;;;14.40;99.90;14.70;101961.00;;;;5046519;28;20209;-65
2022/05/21 06:04:13;;;;;;;0.80;0.80;;;15.20;99.90;14.40;101958.00;;;;5033403;28;20179;-65
2022/05/21 06:06:39;;;;;;;3.80;1.70;;;14.90;99.90;15.10;101971.00;;;;5033681;28;20266;-65
2022/05/21 06:09:05;;;;;;;0.30;0.30;;;15.30;99.90;16.10;101961.00;;;;5065841;28;20219;-65
2022/05/21 06:11:37;;;;;;;15.67;3.07;;;15.90;99.90;15.00;101954.00;;;;5033831;28;20208;-65
2022/05/21 06:14:04;;;;;;;6.90;2.77;;;15.80;99.90;14.30;101953.00;;;;5033291;28;20198;-65
2022/05/21 06:16:30;;;;;;;0.20;0.20;;;15.30;99.90;14.60;101971.00;;;;5048971;28;20178;-66
2022/05/21 06:18:56;;;;;;;0.80;0.60;;;15.20;99.90;15.20;101961.00;;;;5048688;28;20327;-66
2022/05/21 06:21:22;;;;;;;0.60;0.60;;;15.50;99.90;15.30;101948.00;;;;5048908;28;20197;-65
2022/05/21 06:23:47;;;;;;;0.87;0.80;;;16.00;99.90;15.00;101959.00;;;;5033453;28;20190;-66
2022/05/21 06:26:13;;;;;;;0.20;0.20;;;15.90;99.90;15.80;101967.00;;;;5033307;28;20183;-66
2022/05/21 06:28:39;;;;;;;1.03;0.63;;;15.90;99.90;15.20;101963.00;;;;5065429;28;20193;-65
2022/05/21 06:31:05;;;;;;;3.17;1.80;;;16.00;99.90;15.90;101959.00;;;;5065255;28;20204;-66
2022/05/21 06:33:32;;;;;;;1.03;0.43;;;16.10;99.90;15.20;101964.00;;;;5033227;28;20181;-66
2022/05/21 06:36:17;;;;;;;2.53;1.90;;;16.00;99.90;15.10;101941.00;;;;5032983;28;20183;-66
2022/05/21 06:38:44;;;;;;;2.80;2.40;;;15.80;99.90;14.30;101975.00;;;;5048380;28;20282;-64
2022/05/21 06:41:10;;;;;;;13.60;2.27;;;15.20;99.90;14.20;101994.00;;;;5048497;28;20187;-63
2022/05/21 06:43:37;;;;;;;0.30;0.30;;;14.70;99.90;14.10;101998.00;;;;5048666;28;20175;-65
2022/05/21 06:46:04;;;;;;;2.63;2.30;;;14.60;99.90;13.70;101999.00;;;;5048452;28;20179;-65
2022/05/21 06:48:29;;;;;;;4.73;3.30;;;14.40;99.90;13.90;101969.00;;;;5048493;28;20199;-65
2022/05/21 06:50:55;;;;;;;0.97;0.97;;;14.40;99.90;13.90;102007.00;;;;5048208;28;20214;-65
2022/05/21 06:53:21;;;;;;;1.43;1.33;;;14.40;99.90;14.10;101996.00;;;;5034235;28;20214;-65
2022/05/21 06:55:47;;;;;;;3.40;1.87;;;14.50;99.90;14.00;101988.00;;;;5037204;28;20184;-64
2022/05/21 06:58:13;;;;;;;2.53;1.70;;;14.50;99.90;14.60;102003.00;;;;5036800;28;20180;-65
2022/05/21 07:00:39;;;;;;;0.90;0.90;;;14.90;99.90;14.50;102002.00;;;;5069212;28;20689;-64
2022/05/21 07:03:05;;;;;;;6.23;2.63;;;15.00;99.90;14.60;101977.00;;;;5037057;28;20646;-64
2022/05/21 07:08:22;;;;;;;5.97;1.87;;;15.20;99.90;14.60;102009.00;;;;5036769;28;20596;-64
2022/05/21 07:10:48;;;;;;;2.30;1.03;;;15.20;99.90;14.70;102011.00;;;;5052132;28;20179;-65
2022/05/21 07:13:16;;;;;;;1.47;1.37;;;15.20;99.90;15.00;102006.00;;;;5051994;28;20199;-65
2022/05/21 07:15:43;;;;;;;3.40;1.47;;;15.40;99.90;14.90;101973.00;;;;5069174;28;20257;-65
2022/05/21 07:18:09;;;;;;;2.40;2.20;;;15.40;99.90;15.60;102003.00;;;;5052388;28;20182;-65
2022/05/21 07:20:35;;;;;;;2.10;1.90;;;15.80;99.90;15.60;102010.00;;;;5036358;28;20549;-65
2022/05/21 07:23:01;;;;;;;5.03;1.90;;;16.00;99.90;14.90;102004.00;;;;5052060;28;20188;-65
2022/05/21 07:25:30;;;;;;;1.70;1.60;;;15.80;99.90;15.00;102005.00;;;;5036313;28;20234;-65
2022/05/21 07:27:57;;;;;;;4.40;1.17;;;15.60;99.90;14.80;102013.00;;;;5051875;28;20191;-65
2022/05/21 07:30:23;;;;;;;1.90;1.80;;;15.50;99.90;14.50;102025.00;;;;5051894;28;20175;-66
2022/05/21 07:32:50;;;;;;;4.53;3.20;;;15.30;99.90;14.40;102019.00;;;;5036464;28;20689;-65
2022/05/21 07:35:19;;;;;;;5.33;3.60;;;15.20;99.90;14.30;102030.00;;;;5035962;28;20261;-65
2022/05/21 07:37:45;;;;;;;2.40;1.43;;;15.00;99.90;15.00;102028.00;;;;5036212;28;20178;-65
2022/05/21 07:40:13;;;;;;;1.47;1.27;;;15.50;99.90;14.70;102035.00;;;;5036454;28;20246;-65
2022/05/21 07:42:39;;;;;;;1.53;1.43;;;15.40;99.90;15.00;102027.00;;;;5036196;28;20184;-66
2022/05/21 07:45:08;;;;;;;0.30;0.30;;;15.50;99.90;15.30;102025.00;;;;5036277;28;20177;-66
2022/05/21 07:47:34;;;;;;;3.03;1.57;;;15.80;99.90;15.70;102035.00;;;;5067707;28;20192;-66
2022/05/21 07:50:00;;;;;;;1.03;1.03;;;16.10;99.90;15.30;102031.00;;;;5036038;28;20166;-66
2022/05/21 07:52:28;;;;;;;3.77;2.60;;;16.00;99.90;15.50;101999.00;;;;5051062;28;20284;-66
2022/05/21 07:54:54;;;;;;;0.70;0.63;;;16.10;99.90;15.80;102023.00;;;;5051547;28;20222;-66
2022/05/21 07:57:20;;;;;;;5.10;3.17;;;16.20;99.90;16.10;102026.00;;;;5051542;28;20230;-66
2022/05/21 07:59:46;;;;;;;1.70;1.57;;;16.50;99.90;16.50;102011.00;;;;5036011;28;20182;-66
2022/05/21 08:02:15;;;;;;;4.00;3.00;;;16.80;99.90;16.60;102015.00;;;;5050822;28;20719;-66
2022/05/21 08:04:43;;;;;;;5.50;2.93;;;17.20;99.90;16.20;102011.00;;;;5050967;28;20176;-66
2022/05/21 08:07:09;;;;;;;5.40;1.97;;;16.90;99.90;16.10;102011.00;;;;5035922;28;20625;-66
2022/05/21 08:09:36;;;;;;;1.33;1.33;;;16.70;99.90;15.60;102007.00;;;;5051411;28;20170;-66
2022/05/21 08:12:04;;;;;;;1.10;1.00;;;16.40;99.90;15.40;102013.00;;;;5051044;28;20207;-66
2022/05/21 08:14:31;;;;;;;5.53;1.87;;;16.20;99.90;15.70;102002.00;;;;5051304;28;20170;-66
2022/05/21 08:16:58;;;;;;;3.90;2.33;;;16.20;99.90;15.80;101990.00;;;;5035389;28;20216;-66
2022/05/21 08:19:24;;;;;;;2.80;2.40;;;16.20;99.90;15.30;102016.00;;;;5050800;28;20208;-66
2022/05/21 08:21:50;;;;;;;2.93;1.43;;;16.00;99.90;15.30;102029.00;;;;5035779;28;20253;-66
2022/05/21 08:27:02;;;;;;;1.30;1.30;;;15.60;99.90;15.10;102039.00;;;;5048658;28;20179;-66
2022/05/21 08:29:32;;;;;;;1.90;1.03;;;15.50;99.90;15.20;102030.00;;;;5050918;28;20187;-66
2022/05/21 08:31:59;;;;;;;0.37;0.37;;;15.70;99.90;15.90;102027.00;;;;5050060;28;20657;-66
2022/05/21 08:34:26;;;;;;;20.57;6.27;;;15.90;99.90;15.80;101997.00;;;;5050885;28;20218;-65
2022/05/21 08:36:53;;;;;;;2.77;2.27;;;16.10;99.90;15.50;102028.00;;;;5050798;28;20184;-66
2022/05/21 08:39:20;;;;;;;13.80;4.80;;;16.10;99.90;14.80;102021.00;;;;5050417;28;20212;-65
2022/05/21 08:41:53;;;;;;;1.40;1.30;;;15.80;99.90;15.90;102035.00;;;;5067149;28;20616;-65
2022/05/21 08:44:39;;;;;;;0.77;0.77;;;16.00;99.90;16.40;102026.00;;;;5035362;28;20213;-65
2022/05/21 08:47:15;;;;;;;6.23;2.80;;;16.70;99.90;17.30;101990.00;;;;5050066;28;20182;-65
2022/05/21 08:50:01;;;;;;;3.53;3.20;;;17.30;99.90;17.90;102019.00;;;;5035004;28;20258;-65
2022/05/21 08:52:35;;;;;;;11.70;1.73;;;18.00;99.90;17.70;102005.00;;;;5049954;28;20193;-66
2022/05/21 08:55:06;;;;;;;1.93;1.53;;;18.10;99.90;18.50;102026.00;;;;5050170;28;20587;-67
2022/05/21 08:57:48;;;;;;;3.97;2.73;;;18.50;99.90;17.10;102021.00;;;;5050263;28;20240;-65
2022/05/21 09:00:19;;;;;;;4.03;2.97;;;18.00;99.90;16.60;102011.00;;;;5050541;28;20261;-65
2022/05/21 09:02:46;;;;;;;4.37;3.27;;;17.50;99.90;17.70;102011.00;;;;5034513;28;20607;-66
2022/05/21 09:05:15;;;;;;;9.27;0.82;;;17.90;99.90;16.90;102006.00;;;;5034462;28;20614;-66
2022/05/21 09:08:22;;;;;;;1.75;1.65;;;17.60;99.90;17.80;102032.00;;;;5034611;28;20210;-66
2022/05/21 09:10:55;;;;;;;11.70;3.58;;;18.00;99.90;17.80;102024.00;;;;5034679;28;20529;-66
2022/05/21 09:13:46;;;;;;;10.57;3.08;;;18.20;99.90;16.90;102030.00;;;;5049692;28;20202;-66
2022/05/21 09:19:00;;;;;;;2.22;1.35;;;17.80;99.90;17.40;102041.00;;;;5034369;28;20216;-66
2022/05/21 09:21:28;;;;;;;8.77;3.10;;;18.10;99.90;17.40;102039.00;;;;5049835;28;20179;-66
2022/05/21 09:24:01;;;;;;;3.50;3.20;;;17.90;99.90;16.90;102025.00;;;;5049586;28;20203;-66
2022/05/21 09:26:51;;;;;;;6.70;2.40;;;17.60;99.90;17.60;102031.00;;;;5034496;28;20261;-66
2022/05/21 09:29:26;;;;;;;11.10;3.45;;;17.80;99.90;17.60;102049.00;;;;5049362;28;20178;-66
2022/05/21 09:31:58;;;;;;;2.03;1.17;;;18.30;99.90;17.40;102021.00;;;;5049488;28;20254;-65
2022/05/21 09:34:31;;;;;;;3.00;1.90;;;17.80;99.90;17.80;102056.00;;;;5049361;28;20190;-66
2022/05/21 09:36:58;;;;;;;13.70;2.38;;;18.20;99.90;18.60;102062.00;;;;5049547;28;20561;-66
2022/05/21 09:39:39;;;;;;;6.18;3.50;;;18.80;99.90;19.40;102098.00;;;;5049465;28;20265;-66
2022/05/21 09:45:22;;;;;;;1.10;1.10;;;19.80;99.90;19.50;102103.00;;;;5046935;28;20193;-66
2022/05/21 09:48:08;;;;;;;2.70;2.00;;;19.60;99.90;18.30;102058.00;;;;5034147;28;20159;-66
2022/05/21 09:51:00;;;;;;;0.63;0.60;;;18.70;99.90;18.50;102059.00;;;;5033106;28;20202;-66
2022/05/21 09:53:33;;;;;;;2.47;2.15;;;18.70;99.90;19.10;102053.00;;;;5033437;28;20201;-66
2022/05/21 09:56:06;;;;;;;2.47;2.05;;;19.20;99.90;19.10;102080.00;;;;5033926;28;20175;-67
2022/05/21 09:58:42;;;;;;;4.47;2.00;;;19.40;99.90;19.30;102111.00;;;;5048852;28;20171;-67
2022/05/21 10:01:14;;;;;;;1.92;1.83;;;19.50;99.90;18.40;102091.00;;;;5048962;28;20191;-67
2022/05/21 10:03:49;;;;;;;13.65;1.10;;;18.80;99.90;20.00;102112.00;;;;5048753;28;20205;-67
2022/05/21 10:06:30;;;;;;;11.57;1.95;;;19.50;99.90;20.00;102122.00;;;;5033790;28;20189;-67
2022/05/21 10:12:28;;;;;;;5.05;2.28;;;20.30;99.90;20.60;102150.00;;;;5046789;28;20313;-67
2022/05/21 10:15:06;;;;;;;1.00;1.00;;;20.20;99.90;21.50;102156.00;;;;5045836;28;20190;-65
2022/05/21 10:17:47;;;;;;;5.10;2.90;;;21.10;99.90;20.20;102166.00;;;;5048724;28;20169;-65
2022/05/21 10:20:20;;;;;;;0.65;0.65;;;21.00;99.90;20.90;102163.00;;;;5048791;28;20232;-67
2022/05/21 10:33:29;;;;;;;2.70;0.98;;;20.70;99.90;20.30;102171.00;;;;5070756;28;21071;-67
2022/05/21 10:36:20;;;;;;;5.25;3.85;;;20.50;99.90;21.60;102148.00;;;;5050666;28;20182;-67
2022/05/21 10:39:28;;;;;;;2.10;1.27;;;21.00;99.90;20.00;102162.00;;;;5049150;28;20586;-67
2022/05/21 10:42:11;;;;;;;0.95;0.95;;;20.50;99.90;23.60;102192.00;;;;5039425;28;20240;-67
2022/05/21 10:44:51;;;;;;;3.80;2.88;;;22.40;99.90;21.30;102157.00;;;;5050418;28;20179;-67
2022/05/21 10:47:29;;;;;;;9.65;2.75;;;21.90;99.90;21.90;102192.00;;;;5049274;28;20209;-67
2022/05/21 10:50:11;;;;;;;3.65;2.03;;;21.90;99.90;18.90;102161.00;;;;5050470;28;20174;-67
2022/05/21 10:53:51;;;;;;;0.15;0.15;;;20.10;99.90;20.30;102154.00;;;;5049356;28;20190;-67
2022/05/21 10:57:00;;;;;;;2.50;2.15;;;20.00;99.90;19.70;102169.00;;;;5012162;28;20194;-67
2022/05/21 10:59:43;;;;;;;1.65;1.55;;;19.80;99.90;20.10;102134.00;;;;5050244;28;20257;-68
2022/05/21 11:02:39;;;;;;;0.30;0.30;;;20.10;99.90;21.20;102182.00;;;;5049918;28;20214;-67
2022/05/21 11:06:01;;;;;;;0.35;0.35;;;20.40;99.90;20.30;102193.00;;;;5049961;28;20202;-67
2022/05/21 11:08:48;;;;;;;1.92;1.77;;;21.30;99.90;19.50;102174.00;;;;5049837;28;20178;-67
2022/05/21 11:11:59;;;;;;;0.98;0.93;;;19.90;99.90;20.40;102189.00;;;;5049643;28;20289;-67
2022/05/21 11:14:51;;;;;;;1.17;0.73;;;20.00;99.90;20.40;102190.00;;;;5050135;28;20170;-66
2022/05/21 11:17:40;;;;;;;0.10;0.10;;;20.40;99.90;21.20;102167.00;;;;5050030;28;20170;-67
2022/05/21 11:20:21;;;;;;;2.50;2.40;;;20.50;99.90;22.20;102208.00;;;;5049770;28;20159;-67
2022/05/21 11:23:15;;;;;;;4.45;2.15;;;21.50;99.90;23.10;102214.00;;;;5048656;28;20181;-68
2022/05/21 11:26:05;;;;;;;1.30;1.20;;;22.60;99.90;21.20;102173.00;;;;5039265;28;20290;-67
2022/05/21 11:28:54;;;;;;;3.60;2.67;;;21.90;99.90;21.30;102198.00;;;;5048565;28;20175;-66
2022/05/21 11:37:21;;;;;;;1.05;0.95;;;20.70;99.90;20.20;102191.00;;;;5048469;28;20193;-66
2022/05/21 11:39:51;;;;;;;0.75;0.75;;;20.40;99.90;19.90;102179.00;;;;5048391;28;20166;-67
2022/05/21 11:42:41;;;;;;;2.17;1.67;;;20.10;99.90;19.60;102180.00;;;;5047769;28;20221;-67
2022/05/21 11:45:24;;;;;;;0.75;0.70;;;20.00;99.90;21.40;102147.00;;;;5034944;28;20183;-67
2022/05/21 11:47:53;;;;;;;1.30;0.93;;;20.80;99.90;21.80;102193.00;;;;5018171;28;20220;-67